createdAt,value
2023-01-18T00:01:26.784Z,84.58
2023-01-18T00:06:30.111Z,84.27
2023-01-18T00:11:33.415Z,84.14
2023-01-18T00:16:36.734Z,84.17
2023-01-18T00:21:40.957Z,84.50
2023-01-18T00:26:44.159Z,84.86
2023-01-18T00:31:47.369Z,85.04
2023-01-18T00:36:50.683Z,85.26
2023-01-18T00:42:12.634Z,85.87
2023-01-18T00:47:15.756Z,86.03
2023-01-18T00:52:18.945Z,86.04
2023-01-18T00:57:22.559Z,86.18
2023-01-18T01:02:25.726Z,86.11
2023-01-18T01:07:28.976Z,86.00
2023-01-18T01:12:51.032Z,85.91
2023-01-18T01:18:13.287Z,86.01
2023-01-18T01:23:42.618Z,86.14
2023-01-18T01:28:52.536Z,86.42
2023-01-18T01:33:55.783Z,86.59
2023-01-18T01:38:58.885Z,86.68
2023-01-18T01:44:28.439Z,86.64
2023-01-18T01:49:48.616Z,86.39
2023-01-18T01:54:58.180Z,86.46
2023-01-18T02:00:26.085Z,86.76
2023-01-18T02:05:32.242Z,86.85
2023-01-18T02:10:35.401Z,86.69
2023-01-18T02:16:29.133Z,86.54
2023-01-18T02:21:50.195Z,86.71
2023-01-18T02:26:59.765Z,86.85
2023-01-18T02:32:17.267Z,86.85
2023-01-18T02:37:44.133Z,86.83
2023-01-18T02:43:08.568Z,86.87
2023-01-18T02:48:13.136Z,86.76
2023-01-18T02:53:16.959Z,86.68
2023-01-18T02:58:34.161Z,86.81
2023-01-18T03:03:41.372Z,86.83
2023-01-18T03:08:54.241Z,86.87
2023-01-18T03:14:00.050Z,86.96
2023-01-18T03:19:52.611Z,86.66
2023-01-18T03:24:55.616Z,86.90
2023-01-18T03:30:17.881Z,87.21
2023-01-18T03:35:28.250Z,87.34
2023-01-18T03:40:31.562Z,87.49
2023-01-18T03:45:43.906Z,87.58
2023-01-18T03:51:06.239Z,87.57
2023-01-18T03:56:29.623Z,86.83
2023-01-18T04:01:33.079Z,86.69
2023-01-18T04:06:37.045Z,86.93
2023-01-18T04:11:40.191Z,86.87
2023-01-18T04:16:43.927Z,87.11
2023-01-18T04:21:47.713Z,87.32
2023-01-18T04:26:50.921Z,87.28
2023-01-18T04:31:54.787Z,87.62
2023-01-18T04:36:58.466Z,87.86
2023-01-18T04:42:01.574Z,87.69
2023-01-18T04:47:04.713Z,87.51
2023-01-18T04:52:07.788Z,87.48
2023-01-18T04:57:10.822Z,87.50
2023-01-18T05:02:15.529Z,87.78
2023-01-18T05:07:18.781Z,87.97
2023-01-18T05:12:21.843Z,87.83
2023-01-18T05:17:30.646Z,87.82
2023-01-18T05:22:34.305Z,87.86
2023-01-18T05:27:37.628Z,87.74
2023-01-18T05:32:40.736Z,87.51
2023-01-18T05:37:43.731Z,87.31
2023-01-18T05:42:46.982Z,87.29
2023-01-18T05:47:50.449Z,87.47
2023-01-18T05:52:53.479Z,87.72
2023-01-18T05:57:56.668Z,87.79
2023-01-18T06:03:00.497Z,87.89
2023-01-18T06:08:03.903Z,88.18
2023-01-18T06:13:07.032Z,88.34
2023-01-18T06:18:10.212Z,88.25
2023-01-18T06:23:13.625Z,88.15
2023-01-18T06:28:19.719Z,88.00
2023-01-18T06:33:24.598Z,88.04
2023-01-18T06:38:27.704Z,88.18
2023-01-18T06:43:30.972Z,88.31
2023-01-18T06:48:34.080Z,88.83
2023-01-18T06:53:38.048Z,89.14
2023-01-18T06:58:41.276Z,89.36
2023-01-18T07:03:44.448Z,89.34
2023-01-18T07:08:50.486Z,89.27
2023-01-18T07:13:54.213Z,89.18
2023-01-18T07:19:00.135Z,89.11
2023-01-18T07:24:03.200Z,89.22
2023-01-18T07:29:06.503Z,89.31
2023-01-18T07:34:11.344Z,89.44
2023-01-18T07:39:14.465Z,89.47
2023-01-18T07:44:17.670Z,89.36
2023-01-18T07:49:20.696Z,89.22
2023-01-18T07:54:23.877Z,89.14
2023-01-18T07:59:28.137Z,89.20
2023-01-18T08:04:31.418Z,89.15
2023-01-18T08:09:34.841Z,89.25
2023-01-18T08:14:37.878Z,89.12
2023-01-18T08:19:40.947Z,89.36
2023-01-18T08:24:43.969Z,89.28
2023-01-18T08:29:48.463Z,89.17
2023-01-18T08:34:51.704Z,89.12
2023-01-18T08:39:54.750Z,89.05
2023-01-18T08:44:57.812Z,88.87
2023-01-18T08:50:01.015Z,88.79
2023-01-18T08:55:06.746Z,88.87
2023-01-18T09:00:11.307Z,88.75
2023-01-18T09:05:14.733Z,88.79
2023-01-18T09:10:18.580Z,88.85
2023-01-18T09:15:21.784Z,88.99
2023-01-18T09:20:26.159Z,88.97
2023-01-18T09:25:29.320Z,88.96
2023-01-18T09:30:33.458Z,88.57
2023-01-18T09:35:37.481Z,88.54
2023-01-18T09:40:44.787Z,88.62
2023-01-18T09:45:48.229Z,88.86
2023-01-18T09:50:53.443Z,89.07
2023-01-18T09:56:31.263Z,89.01
2023-01-18T10:01:36.877Z,89.14
2023-01-18T10:06:58.384Z,89.15
2023-01-18T10:12:27.294Z,89.03
2023-01-18T10:17:41.651Z,88.96
2023-01-18T10:23:19.501Z,89.03
2023-01-18T10:28:51.040Z,89.24
2023-01-18T10:33:58.825Z,89.39
2023-01-18T10:39:10.813Z,89.57
2023-01-18T10:44:13.982Z,89.68
2023-01-18T10:49:35.303Z,89.52
2023-01-18T10:54:38.416Z,89.37
2023-01-18T10:59:41.731Z,89.39
2023-01-18T11:04:45.652Z,89.65
2023-01-18T11:09:54.677Z,89.63
2023-01-18T11:15:06.610Z,89.53
2023-01-18T11:20:36.960Z,89.57
2023-01-18T11:25:50.720Z,89.43
2023-01-18T11:31:08.158Z,89.44
2023-01-18T11:36:11.475Z,89.47
2023-01-18T11:41:21.399Z,89.43
2023-01-18T11:46:37.298Z,89.43
2023-01-18T11:51:56.527Z,89.77
2023-01-18T11:57:00.153Z,89.92
2023-01-18T12:02:18.123Z,89.89
2023-01-18T12:08:05.195Z,89.97
2023-01-18T12:13:34.964Z,89.94
2023-01-18T12:19:00.036Z,90.04
2023-01-18T12:24:12.410Z,90.14
2023-01-18T12:29:37.196Z,90.11
2023-01-18T12:34:48.974Z,90.18
2023-01-18T12:39:54.936Z,90.04
2023-01-18T12:45:29.665Z,90.14
2023-01-18T12:50:37.464Z,90.25
2023-01-18T12:55:49.790Z,90.40
2023-01-18T13:01:05.343Z,90.36
2023-01-18T13:06:11.572Z,90.50
2023-01-18T13:11:27.284Z,90.64
2023-01-18T13:16:46.764Z,90.88
2023-01-18T13:22:23.561Z,91.07
2023-01-18T13:27:27.356Z,91.18
2023-01-18T13:32:39.094Z,91.08
2023-01-18T13:37:56.427Z,90.99
2023-01-18T13:42:59.954Z,91.00
2023-01-18T13:48:46.673Z,91.01
2023-01-18T13:53:53.368Z,91.09
2023-01-18T13:59:02.227Z,91.06
2023-01-18T14:04:27.062Z,91.06
2023-01-18T14:09:48.243Z,91.07
2023-01-18T14:14:57.326Z,91.14
2023-01-18T14:20:58.279Z,91.31
2023-01-18T14:26:09.857Z,91.41
2023-01-18T14:31:21.298Z,91.51
2023-01-18T14:36:28.463Z,91.54
2023-01-18T14:41:31.601Z,91.54
2023-01-18T14:46:34.729Z,91.61
2023-01-18T14:51:37.989Z,91.62
2023-01-18T14:56:43.181Z,91.56
2023-01-18T15:01:56.937Z,91.54
2023-01-18T15:07:10.446Z,91.60
2023-01-18T15:12:19.881Z,91.79
2023-01-18T15:17:26.497Z,91.98
2023-01-18T15:22:37.920Z,92.03
2023-01-18T15:27:42.888Z,92.14
2023-01-18T15:32:50.131Z,92.17
2023-01-18T15:37:53.359Z,92.20
2023-01-18T15:43:30.782Z,92.32
2023-01-18T15:48:47.552Z,92.29
2023-01-18T15:53:56.499Z,92.37
2023-01-18T15:59:06.817Z,92.36
2023-01-18T16:04:09.918Z,92.53
2023-01-18T16:09:14.370Z,92.54
2023-01-18T16:14:29.353Z,92.55
2023-01-18T16:19:54.261Z,92.54
2023-01-18T16:25:08.843Z,92.53
2023-01-18T16:30:40.365Z,92.60
2023-01-18T16:35:45.051Z,92.60
2023-01-18T16:40:50.416Z,92.57
2023-01-18T16:45:57.035Z,92.48
2023-01-18T16:51:01.649Z,92.46
2023-01-18T16:56:05.196Z,92.50
2023-01-18T17:01:16.012Z,92.41
2023-01-18T17:06:22.622Z,92.32
2023-01-18T17:11:26.219Z,92.31
2023-01-18T17:16:29.378Z,92.42
2023-01-18T17:21:32.583Z,92.47
2023-01-18T17:26:38.000Z,92.38
2023-01-18T17:31:48.093Z,92.38
2023-01-18T17:36:55.313Z,92.43
2023-01-18T17:42:01.736Z,92.54
2023-01-18T17:47:06.128Z,92.56
2023-01-18T17:52:09.331Z,92.67
2023-01-18T17:57:12.553Z,92.74
2023-01-18T18:02:16.131Z,92.69
2023-01-18T18:07:20.349Z,92.63
2023-01-18T18:12:25.293Z,92.53
2023-01-18T18:17:32.319Z,92.46
2023-01-18T18:22:36.003Z,92.36
2023-01-18T18:27:47.344Z,92.37
2023-01-18T18:32:51.098Z,92.35
2023-01-18T18:37:57.284Z,92.31
2023-01-18T18:43:02.685Z,92.24
2023-01-18T18:48:07.086Z,92.27
2023-01-18T18:53:10.680Z,92.25
2023-01-18T18:58:13.979Z,92.32
2023-01-18T19:03:17.737Z,92.35
2023-01-18T19:08:21.218Z,92.36
2023-01-18T19:13:24.320Z,92.32
2023-01-18T19:18:27.838Z,92.21
2023-01-18T19:23:31.156Z,92.07
2023-01-18T19:28:34.465Z,91.97
2023-01-18T19:33:37.876Z,91.92
2023-01-18T19:38:46.041Z,91.92
2023-01-18T19:43:50.531Z,91.84
2023-01-18T19:48:59.489Z,91.76
2023-01-18T19:54:04.960Z,91.67
2023-01-18T19:59:10.530Z,91.58
2023-01-18T20:04:13.924Z,91.41
2023-01-18T20:09:22.006Z,91.33
2023-01-18T20:14:36.723Z,91.13
2023-01-18T20:19:45.769Z,91.25
2023-01-18T20:24:49.186Z,91.36
2023-01-18T20:29:52.249Z,91.43
2023-01-18T20:34:55.296Z,91.43
2023-01-18T20:39:58.390Z,91.37
2023-01-18T20:45:01.774Z,91.36
2023-01-18T20:50:05.593Z,91.25
2023-01-18T20:55:12.899Z,91.26
2023-01-18T21:00:16.395Z,91.32
2023-01-18T21:05:19.562Z,91.39
2023-01-18T21:10:22.765Z,91.46
2023-01-18T21:15:26.592Z,91.43
2023-01-18T21:20:30.328Z,91.46
2023-01-18T21:25:33.559Z,91.46
2023-01-18T21:30:36.828Z,91.43
2023-01-18T21:35:40.151Z,91.39
2023-01-18T21:40:43.292Z,91.39
2023-01-18T21:45:56.373Z,91.43
2023-01-18T21:51:21.629Z,91.50
2023-01-18T21:56:24.828Z,91.49
2023-01-18T22:01:37.920Z,91.50
2023-01-18T22:06:41.582Z,91.41
2023-01-18T22:11:44.732Z,91.42
2023-01-18T22:16:48.135Z,91.43
2023-01-18T22:21:52.062Z,91.46
2023-01-18T22:26:55.134Z,91.51
2023-01-18T22:31:58.268Z,91.54
2023-01-18T22:37:01.351Z,91.54
2023-01-18T22:42:05.002Z,91.50
2023-01-18T22:47:08.170Z,91.44
2023-01-18T22:52:11.300Z,91.43
2023-01-18T22:57:14.797Z,91.64
2023-01-18T23:02:18.006Z,91.76
2023-01-18T23:07:21.379Z,91.89
2023-01-18T23:12:24.587Z,91.81
2023-01-18T23:17:39.954Z,91.75
2023-01-18T23:22:44.866Z,91.79
2023-01-18T23:27:47.975Z,91.82
2023-01-18T23:32:51.111Z,91.90
2023-01-18T23:37:54.702Z,91.81
2023-01-18T23:43:16.547Z,91.70
2023-01-18T23:48:38.906Z,91.57
2023-01-18T23:54:00.958Z,91.42
2023-01-18T23:59:04.466Z,91.35
